Time;durP1;ratioP1;P1;durP2;ratioP2;P2;SDS_P1;SDS_P2;PMS_P1;PMS_P2;Temp;Humidity;BMP_temperature;BMP_pressure;BME280_temperature;BME280_humidity;BME280_pressure;Samples;Min_cycle;Max_cycle;Signal;HPM_P1;HPM_P2
2024/01/16 00:02:09;;;;;;;22.95;14.98;;;;;;;14.65;49.29;100997.44;4945438;29;20175;-37
2024/01/16 00:04:40;;;;;;;22.63;14.90;;;;;;;14.78;49.33;101000.75;4945453;29;20665;-35
2024/01/16 00:07:07;;;;;;;22.15;14.65;;;;;;;14.91;48.86;101000.56;4944333;29;20126;-35
2024/01/16 00:09:34;;;;;;;23.35;14.27;;;;;;;15.03;48.77;101002.19;4943318;28;20051;-35
2024/01/16 00:12:03;;;;;;;22.15;14.18;;;;;;;15.11;48.90;100997.03;4944486;28;20392;-35
2024/01/16 00:14:30;;;;;;;19.98;12.20;;;;;;;15.17;49.21;100995.69;4945069;29;20055;-34
2024/01/16 00:16:57;;;;;;;21.35;13.80;;;;;;;15.18;48.62;100997.38;4944422;29;20093;-35
2024/01/16 00:19:23;;;;;;;18.33;12.43;;;;;;;15.15;48.25;100993.13;4945817;29;20072;-35
2024/01/16 00:21:51;;;;;;;19.38;12.88;;;;;;;15.11;48.58;100997.03;4942766;29;20448;-35
2024/01/16 00:24:17;;;;;;;20.98;13.07;;;;;;;15.06;49.14;100999.28;4941802;28;20379;-35
2024/01/16 00:26:44;;;;;;;21.92;13.10;;;;;;;15.01;49.11;101006.84;4943061;29;20126;-35
2024/01/16 00:29:12;;;;;;;19.55;12.48;;;;;;;14.96;48.88;101001.03;4943470;29;20043;-36
2024/01/16 00:31:39;;;;;;;17.83;11.85;;;;;;;14.92;49.08;101005.78;4940593;29;20050;-35
2024/01/16 00:34:06;;;;;;;19.00;11.55;;;;;;;14.88;49.17;101006.19;4939133;29;20060;-35
2024/01/16 00:36:32;;;;;;;17.67;11.70;;;;;;;14.81;49.54;101000.50;4940150;29;20059;-36
2024/01/16 00:38:59;;;;;;;17.13;11.95;;;;;;;14.76;49.29;101005.38;4946636;28;20047;-35
2024/01/16 00:41:26;;;;;;;18.02;11.55;;;;;;;14.69;49.03;101005.03;4944051;29;20044;-36
2024/01/16 00:43:53;;;;;;;18.60;11.77;;;;;;;14.62;49.56;101011.84;4943923;28;20432;-36
2024/01/16 00:46:20;;;;;;;17.33;11.00;;;;;;;14.55;49.71;101016.88;4940372;29;20048;-35
2024/01/16 00:48:48;;;;;;;17.35;11.65;;;;;;;14.49;49.57;101013.84;4941376;29;20055;-36
2024/01/16 00:51:15;;;;;;;16.95;10.93;;;;;;;14.41;49.81;101014.44;4943956;29;20039;-35
2024/01/16 00:53:42;;;;;;;18.23;12.00;;;;;;;14.32;50.43;101018.72;4946192;29;20058;-35
2024/01/16 00:56:09;;;;;;;16.25;10.73;;;;;;;14.26;50.41;101021.88;4940410;28;20094;-35
2024/01/16 00:58:36;;;;;;;17.05;11.00;;;;;;;14.21;50.58;101015.22;4943895;28;20251;-35
2024/01/16 01:01:03;;;;;;;17.63;10.38;;;;;;;14.16;51.17;101020.09;4944576;28;20130;-36
2024/01/16 01:03:30;;;;;;;17.35;10.50;;;;;;;14.10;50.85;101021.41;4946585;29;20082;-36
2024/01/16 01:05:57;;;;;;;15.85;10.45;;;;;;;14.07;51.22;101027.00;4942765;29;20062;-34
2024/01/16 01:08:24;;;;;;;15.40;9.75;;;;;;;14.15;51.04;101026.38;4941669;28;20058;-35
2024/01/16 01:10:51;;;;;;;17.67;10.52;;;;;;;14.27;50.80;101026.25;4939813;29;20134;-37
2024/01/16 01:13:18;;;;;;;14.73;9.95;;;;;;;14.44;50.85;101018.69;4943368;28;20055;-37
2024/01/16 01:15:45;;;;;;;15.43;9.63;;;;;;;14.56;50.88;101025.72;4942433;29;20051;-36
2024/01/16 01:18:11;;;;;;;15.68;9.73;;;;;;;14.67;50.55;101017.66;4941337;28;20110;-36
2024/01/16 01:20:38;;;;;;;15.48;9.32;;;;;;;14.80;49.75;101044.19;4942323;28;20459;-35
2024/01/16 01:23:05;;;;;;;13.82;8.95;;;;;;;14.92;49.28;101042.31;4945528;28;20055;-36
2024/01/16 01:25:32;;;;;;;14.95;9.60;;;;;;;15.03;49.23;101048.44;4944477;28;20059;-35
2024/01/16 01:27:58;;;;;;;14.82;9.38;;;;;;;15.13;49.34;101053.00;4943165;29;20862;-35
2024/01/16 01:30:25;;;;;;;12.82;8.95;;;;;;;15.21;49.50;101054.03;4945916;29;20047;-37
2024/01/16 01:32:52;;;;;;;12.88;8.00;;;;;;;15.27;48.25;101052.66;4946248;28;20047;-36
2024/01/16 01:35:19;;;;;;;14.32;8.88;;;;;;;15.27;49.24;101050.84;4940527;29;20452;-35
2024/01/16 01:37:46;;;;;;;12.82;7.90;;;;;;;15.24;49.15;101051.13;4942273;28;20052;-38
2024/01/16 01:40:15;;;;;;;12.15;7.43;;;;;;;15.21;48.44;101054.03;4940221;29;20075;-36
2024/01/16 01:42:42;;;;;;;13.27;8.02;;;;;;;15.16;49.25;101050.91;4940219;29;20432;-35
2024/01/16 01:45:10;;;;;;;13.57;7.80;;;;;;;15.08;49.38;101061.41;4940889;29;20047;-36
2024/01/16 01:47:39;;;;;;;11.95;7.68;;;;;;;15.04;48.88;101060.81;4941503;28;20055;-35
2024/01/16 01:50:09;;;;;;;11.18;7.68;;;;;;;15.01;48.66;101063.72;4939135;28;20058;-37
2024/01/16 01:52:38;;;;;;;12.82;7.80;;;;;;;14.97;48.74;101059.63;4944144;29;20055;-36
2024/01/16 01:55:11;;;;;;;10.52;7.50;;;;;;;14.94;49.18;101056.34;4944121;28;20055;-34
2024/01/16 01:57:39;;;;;;;10.67;7.47;;;;;;;14.90;49.16;101052.25;4942061;29;20106;-36
2024/01/16 02:00:06;;;;;;;10.50;6.85;;;;;;;14.86;48.72;101048.16;4942790;29;20048;-36
2024/01/16 02:02:34;;;;;;;11.15;6.75;;;;;;;14.80;49.02;101039.69;4943591;28;20297;-35
2024/01/16 02:05:01;;;;;;;12.55;7.40;;;;;;;14.74;49.58;101040.19;4945470;29;20118;-35
2024/01/16 02:07:31;;;;;;;11.32;7.18;;;;;;;14.67;50.04;101030.97;4940510;28;20056;-34
2024/01/16 02:09:58;;;;;;;8.93;6.45;;;;;;;14.59;50.07;101029.94;4943039;29;20408;-35
2024/01/16 02:12:24;;;;;;;10.80;6.57;;;;;;;14.51;50.03;101035.88;4943659;28;20047;-36
2024/01/16 02:14:51;;;;;;;10.10;6.68;;;;;;;14.47;50.44;101029.97;4940865;28;20440;-35
2024/01/16 02:17:18;;;;;;;8.93;6.43;;;;;;;14.49;50.62;101021.84;4941676;29;20059;-35
2024/01/16 02:19:45;;;;;;;8.52;6.13;;;;;;;14.54;49.82;101027.66;4942493;29;20058;-36
2024/01/16 02:22:18;;;;;;;9.63;6.75;;;;;;;14.63;49.98;101032.22;4942601;29;20052;-35
2024/01/16 02:24:44;;;;;;;8.00;5.18;;;;;;;14.73;50.38;101026.97;4940219;28;20054;-37
2024/01/16 02:27:11;;;;;;;8.70;5.53;;;;;;;14.83;49.71;101027.88;4938800;28;20340;-35
2024/01/16 02:29:42;;;;;;;9.82;6.07;;;;;;;14.92;49.72;101024.47;4937426;29;20051;-35
2024/01/16 02:32:12;;;;;;;9.38;5.85;;;;;;;15.02;49.00;101021.84;4947271;29;20040;-38
2024/01/16 02:34:39;;;;;;;8.70;6.07;;;;;;;15.11;49.48;101029.09;4938626;28;20055;-35
2024/01/16 02:37:06;;;;;;;8.10;5.55;;;;;;;15.20;49.08;101024.81;4939229;29;20517;-35
2024/01/16 02:39:33;;;;;;;9.52;5.63;;;;;;;15.26;48.29;101017.09;4939878;28;20090;-36
2024/01/16 02:41:59;;;;;;;6.45;4.70;;;;;;;15.30;49.31;101015.88;4943900;29;20153;-35
2024/01/16 02:44:26;;;;;;;8.82;5.65;;;;;;;15.33;48.30;101016.59;4942188;28;20055;-35
2024/01/16 02:46:53;;;;;;;8.35;5.32;;;;;;;15.32;49.08;101015.75;4937659;28;20055;-36
2024/01/16 02:49:20;;;;;;;9.65;5.53;;;;;;;15.29;48.19;101016.84;4942192;29;20166;-35
2024/01/16 02:51:46;;;;;;;7.28;4.60;;;;;;;15.24;48.81;101012.88;4944021;29;20047;-35
2024/01/16 02:54:14;;;;;;;7.38;4.90;;;;;;;15.20;49.34;101020.31;4948452;29;20056;-36
2024/01/16 02:56:40;;;;;;;7.05;4.82;;;;;;;15.18;49.57;101016.91;4946874;29;20470;-35
2024/01/16 02:59:07;;;;;;;7.13;4.97;;;;;;;15.15;48.54;101017.16;4943399;29;20052;-35
2024/01/16 03:01:34;;;;;;;8.93;4.85;;;;;;;15.14;49.12;101015.47;4951138;28;20047;-36
2024/01/16 03:04:00;;;;;;;6.72;4.20;;;;;;;15.12;48.37;101021.94;4942073;29;20103;-36
2024/01/16 03:06:28;;;;;;;7.25;4.65;;;;;;;15.09;48.87;101012.38;4946267;29;20111;-38
2024/01/16 03:08:56;;;;;;;8.05;5.03;;;;;;;15.04;48.60;101018.09;4945120;29;20288;-35
2024/01/16 03:11:22;;;;;;;8.70;5.05;;;;;;;14.99;49.37;101020.28;4948311;29;20098;-36
2024/01/16 03:13:52;;;;;;;6.97;4.57;;;;;;;14.94;49.46;101024.34;4945305;28;20047;-35
2024/01/16 03:16:19;;;;;;;6.18;4.15;;;;;;;14.89;48.78;101037.22;4951848;28;20139;-35
2024/01/16 03:18:45;;;;;;;7.00;4.50;;;;;;;14.84;48.57;101034.09;4945015;28;20444;-35
2024/01/16 03:21:13;;;;;;;6.05;3.83;;;;;;;14.76;49.13;101038.25;4948572;29;20047;-36
2024/01/16 03:23:40;;;;;;;6.15;3.88;;;;;;;14.70;49.61;101046.75;4946010;29;20588;-36
2024/01/16 03:26:06;;;;;;;5.32;4.00;;;;;;;14.63;49.92;101034.03;4943759;29;20130;-35
2024/01/16 03:28:34;;;;;;;6.05;4.03;;;;;;;14.57;49.37;101040.75;4949724;28;20055;-34
2024/01/16 03:31:00;;;;;;;6.03;4.25;;;;;;;14.57;49.55;101032.72;4947712;28;20435;-35
2024/01/16 03:33:27;;;;;;;6.35;3.78;;;;;;;14.62;50.03;101037.69;4949129;29;20059;-34
2024/01/16 03:35:54;;;;;;;5.63;3.55;;;;;;;14.69;49.25;101037.06;4945212;29;20052;-35
2024/01/16 03:38:20;;;;;;;5.90;3.92;;;;;;;14.79;50.11;101027.31;4951217;28;20276;-35
2024/01/16 03:40:47;;;;;;;5.82;4.00;;;;;;;14.90;49.43;101028.22;4944051;29;20056;-35
2024/01/16 03:43:14;;;;;;;5.32;3.60;;;;;;;15.03;49.18;101027.09;4943477;29;20154;-37
2024/01/16 03:45:40;;;;;;;6.03;3.85;;;;;;;15.16;48.80;101031.38;4946811;29;20079;-35
2024/01/16 03:48:07;;;;;;;6.55;3.88;;;;;;;15.26;48.62;101022.44;4944187;28;20145;-35
2024/01/16 03:50:35;;;;;;;5.10;3.40;;;;;;;15.35;48.11;101011.94;4941847;29;20054;-35
2024/01/16 03:53:05;;;;;;;5.07;3.30;;;;;;;15.43;48.03;101010.31;4944841;29;20059;-35
2024/01/16 03:55:32;;;;;;;4.50;3.42;;;;;;;15.49;47.88;101008.94;4947474;29;20051;-36
2024/01/16 03:57:58;;;;;;;4.75;3.40;;;;;;;15.53;48.22;101013.88;4946750;29;20142;-35
2024/01/16 04:00:25;;;;;;;5.95;3.70;;;;;;;15.55;47.99;101011.91;4946145;28;20130;-39
2024/01/16 04:02:52;;;;;;;4.05;2.90;;;;;;;15.52;47.45;101006.00;4946155;28;20095;-37
2024/01/16 04:05:18;;;;;;;4.35;2.55;;;;;;;15.47;48.41;101011.72;4941593;29;20067;-36
2024/01/16 04:07:45;;;;;;;4.97;3.17;;;;;;;15.44;47.58;101003.16;4945726;28;20070;-35
2024/01/16 04:10:12;;;;;;;5.55;3.25;;;;;;;15.38;47.59;101009.88;4938511;28;20059;-35
2024/01/16 04:12:38;;;;;;;4.20;2.50;;;;;;;15.35;47.83;101001.28;4938981;29;20073;-36
2024/01/16 04:15:05;;;;;;;4.82;3.30;;;;;;;15.34;47.67;101008.44;4941819;28;22002;-35
2024/01/16 04:17:32;;;;;;;5.07;3.20;;;;;;;15.33;47.84;101008.59;4941024;28;20106;-34
2024/01/16 04:19:59;;;;;;;5.72;3.05;;;;;;;15.34;48.01;101016.44;4946300;29;20478;-36
2024/01/16 04:22:25;;;;;;;4.35;2.60;;;;;;;15.30;48.66;101012.34;4944382;29;20422;-36
2024/01/16 04:24:52;;;;;;;4.50;2.85;;;;;;;15.26;48.38;101017.09;4943881;28;20126;-35
2024/01/16 04:27:19;;;;;;;4.47;2.70;;;;;;;15.23;47.87;101011.19;4945417;29;20051;-35
2024/01/16 04:29:45;;;;;;;4.30;2.65;;;;;;;15.18;47.78;101024.06;4945335;29;20059;-36
2024/01/16 04:32:12;;;;;;;3.47;2.65;;;;;;;15.12;48.89;101020.13;4945331;29;20055;-37
2024/01/16 04:34:39;;;;;;;4.15;2.53;;;;;;;15.09;47.90;101014.19;4944392;29;20555;-36
2024/01/16 04:37:06;;;;;;;3.72;2.80;;;;;;;15.03;49.05;101005.75;4945315;29;20055;-36
2024/01/16 04:39:32;;;;;;;4.63;2.90;;;;;;;14.97;48.39;101006.25;4944493;29;20059;-36
2024/01/16 04:41:59;;;;;;;7.13;2.70;;;;;;;14.91;49.14;101005.91;4944317;29;20145;-36
2024/01/16 04:44:26;;;;;;;4.72;2.85;;;;;;;14.84;48.43;101000.25;4940817;29;20083;-36
2024/01/16 04:46:52;;;;;;;3.88;2.60;;;;;;;14.77;48.47;100999.06;4940355;29;20388;-35
2024/01/16 04:49:19;;;;;;;3.08;2.33;;;;;;;14.69;49.02;101002.38;4943117;29;20440;-35
2024/01/16 04:51:47;;;;;;;4.00;2.85;;;;;;;14.65;49.80;101003.59;4942837;29;20388;-35
2024/01/16 04:54:13;;;;;;;3.63;2.42;;;;;;;14.69;49.12;100999.72;4938715;28;20063;-38
2024/01/16 04:56:40;;;;;;;4.68;2.58;;;;;;;14.80;49.49;101013.00;4944006;29;20438;-37
2024/01/16 04:59:07;;;;;;;3.55;2.40;;;;;;;14.92;48.91;100999.59;4938066;28;20047;-36
2024/01/16 05:01:33;;;;;;;3.60;2.13;;;;;;;15.05;48.68;100997.59;4943995;29;20047;-36
2024/01/16 05:04:00;;;;;;;3.42;1.80;;;;;;;15.17;48.59;100995.69;4945748;29;20135;-35
2024/01/16 05:06:27;;;;;;;3.03;2.17;;;;;;;15.27;48.08;100994.75;4946531;29;20054;-35
2024/01/16 05:08:54;;;;;;;3.42;2.20;;;;;;;15.36;47.93;100978.94;4942731;28;20054;-35
2024/01/16 05:11:20;;;;;;;3.08;2.25;;;;;;;15.43;48.77;100982.75;4939874;28;21579;-35
2024/01/16 05:13:47;;;;;;;3.22;2.10;;;;;;;15.49;47.45;100985.75;4944791;29;20296;-35
2024/01/16 05:16:13;;;;;;;2.97;2.08;;;;;;;15.55;48.24;100979.00;4946279;29;20470;-35
2024/01/16 05:18:44;;;;;;;3.53;2.30;;;;;;;15.55;47.61;100982.53;4942232;29;20432;-37
2024/01/16 05:21:11;;;;;;;2.58;1.80;;;;;;;15.53;47.79;100981.00;4945915;29;20083;-36
2024/01/16 05:23:37;;;;;;;3.42;2.50;;;;;;;15.49;47.61;100967.06;4944396;28;20140;-35
2024/01/16 05:26:04;;;;;;;2.97;1.90;;;;;;;15.44;48.12;100965.78;4938881;29;20051;-36
2024/01/16 05:28:31;;;;;;;2.97;1.83;;;;;;;15.37;48.04;100976.13;4940656;28;20486;-36
2024/01/16 05:30:57;;;;;;;3.92;2.42;;;;;;;15.28;47.96;100960.91;4941329;28;20051;-35
2024/01/16 05:33:24;;;;;;;5.78;2.40;;;;;;;15.23;48.00;100976.47;4947891;29;20130;-35
2024/01/16 05:35:51;;;;;;;3.45;2.45;;;;;;;15.16;48.91;100972.66;4944940;29;20427;-36
2024/01/16 05:38:18;;;;;;;4.38;2.42;;;;;;;15.12;48.39;100976.56;4945180;28;20047;-35
2024/01/16 05:40:44;;;;;;;5.75;3.38;;;;;;;15.08;48.12;100969.78;4939896;29;20075;-37
2024/01/16 05:43:11;;;;;;;5.95;3.63;;;;;;;15.04;49.16;100969.22;4942036;29;20039;-35
2024/01/16 05:45:37;;;;;;;9.55;4.47;;;;;;;15.00;49.30;100965.94;4942868;29;20138;-38
2024/01/16 05:48:06;;;;;;;8.73;5.00;;;;;;;14.95;48.88;100948.63;4939621;29;20511;-36
2024/01/16 05:50:34;;;;;;;10.15;6.45;;;;;;;14.92;49.10;100939.06;4945446;29;20082;-36
2024/01/16 05:53:02;;;;;;;10.88;6.38;;;;;;;14.88;48.84;100942.97;4943493;29;20368;-35
2024/01/16 05:55:31;;;;;;;11.82;7.68;;;;;;;14.81;49.46;100942.66;4946641;29;20453;-35
2024/01/16 05:58:01;;;;;;;13.55;6.80;;;;;;;14.75;49.46;100952.97;4943922;29;20086;-37
2024/01/16 06:00:27;;;;;;;12.75;7.72;;;;;;;14.72;49.43;100954.09;4945604;29;20128;-35
2024/01/16 06:02:54;;;;;;;12.90;7.80;;;;;;;14.79;49.80;100963.28;4940422;29;20337;-34
2024/01/16 06:05:21;;;;;;;14.10;8.43;;;;;;;14.93;49.74;100962.09;4946379;28;20355;-36
2024/01/16 06:07:48;;;;;;;12.60;7.95;;;;;;;15.08;49.74;100959.13;4943024;29;20059;-34
2024/01/16 06:10:15;;;;;;;14.73;8.85;;;;;;;15.19;48.45;100957.19;4943223;28;20966;-36
2024/01/16 06:12:42;;;;;;;16.40;9.90;;;;;;;15.29;49.23;100963.44;4941989;29;20051;-36
2024/01/16 06:15:11;;;;;;;16.00;9.48;;;;;;;15.39;48.75;100959.97;4945342;28;20066;-35
2024/01/16 06:17:38;;;;;;;14.20;8.93;;;;;;;15.47;48.36;100944.13;4939542;28;20059;-36
2024/01/16 06:20:06;;;;;;;14.05;9.25;;;;;;;15.52;47.55;100942.75;4942778;29;20154;-36
2024/01/16 06:22:33;;;;;;;13.48;8.68;;;;;;;15.58;47.64;100946.69;4941643;29;20134;-37
2024/01/16 06:25:01;;;;;;;14.98;10.18;;;;;;;15.62;47.89;100965.97;4945395;28;20086;-35
2024/01/16 06:27:28;;;;;;;15.90;10.63;;;;;;;15.61;47.65;100967.81;4947284;29;20055;-36
2024/01/16 06:29:54;;;;;;;18.88;11.55;;;;;;;15.57;47.82;100966.38;4949018;29;20055;-35
2024/01/16 06:32:21;;;;;;;16.15;10.65;;;;;;;15.53;47.72;100956.94;4944175;28;20143;-36
2024/01/16 06:34:48;;;;;;;18.27;11.48;;;;;;;15.46;47.74;100958.47;4945417;29;20059;-36
2024/01/16 06:37:14;;;;;;;16.65;10.90;;;;;;;15.41;48.86;100963.38;4946236;29;20047;-36
2024/01/16 06:39:41;;;;;;;15.15;9.93;;;;;;;15.35;48.78;100961.22;4944072;29;20055;-36
2024/01/16 06:42:08;;;;;;;18.60;10.90;;;;;;;15.27;48.51;100962.72;4945498;29;20051;-36
2024/01/16 06:44:37;;;;;;;15.27;10.15;;;;;;;15.22;49.29;100956.94;4943743;29;20078;-36
2024/01/16 06:47:04;;;;;;;14.93;10.38;;;;;;;15.18;49.17;100960.84;4944484;28;20093;-35
2024/01/16 06:49:31;;;;;;;16.10;9.80;;;;;;;15.18;48.04;100952.00;4944152;28;20380;-36
2024/01/16 06:51:58;;;;;;;14.80;9.63;;;;;;;15.16;48.70;100951.28;4946119;29;20351;-37
2024/01/16 06:54:25;;;;;;;14.98;10.02;;;;;;;15.13;48.58;100952.41;4946354;29;20098;-38
2024/01/16 06:56:52;;;;;;;17.95;10.50;;;;;;;15.11;48.81;100961.50;4946065;28;20078;-36
2024/01/16 06:59:21;;;;;;;14.88;9.77;;;;;;;15.08;48.88;100959.97;4941345;28;20063;-37
2024/01/16 07:01:48;;;;;;;20.17;10.68;;;;;;;15.03;49.49;100949.69;4945746;29;20363;-37
2024/01/16 07:04:15;;;;;;;16.85;10.43;;;;;;;15.02;49.44;100963.13;4946264;28;20058;-36
2024/01/16 07:06:42;;;;;;;16.00;10.20;;;;;;;14.96;49.47;100955.66;4944731;29;20043;-36
2024/01/16 07:09:10;;;;;;;15.57;9.95;;;;;;;14.94;49.35;100955.78;4944019;28;20133;-35
2024/01/16 07:11:38;;;;;;;14.68;9.98;;;;;;;14.89;48.94;100949.16;4945344;28;20055;-36
2024/01/16 07:14:07;;;;;;;14.88;9.40;;;;;;;14.87;48.61;100953.75;4944256;29;20069;-38
2024/01/16 07:16:34;;;;;;;14.57;9.00;;;;;;;14.81;48.64;100949.81;4941913;29;20102;-35
2024/01/16 07:19:02;;;;;;;15.80;9.80;;;;;;;14.77;49.23;100956.38;4940786;29;20151;-35
2024/01/16 07:21:29;;;;;;;14.27;9.77;;;;;;;14.72;49.53;100950.59;4942847;29;20055;-34
2024/01/16 07:23:55;;;;;;;16.00;9.13;;;;;;;14.67;49.67;100950.94;4945312;28;20217;-35
2024/01/16 07:26:22;;;;;;;15.18;9.43;;;;;;;14.61;49.30;100956.81;4943449;29;20106;-36
2024/01/16 07:28:49;;;;;;;14.70;8.88;;;;;;;14.56;49.03;100964.38;4944476;29;20055;-35
2024/01/16 07:31:16;;;;;;;14.48;9.77;;;;;;;14.51;49.44;100967.41;4944178;29;20062;-35
2024/01/16 07:33:43;;;;;;;14.63;9.02;;;;;;;14.47;49.25;100965.06;4942872;28;20055;-36
2024/01/16 07:36:11;;;;;;;16.67;9.38;;;;;;;14.42;49.91;100969.97;4947022;28;20047;-35
2024/01/16 07:38:37;;;;;;;14.27;9.00;;;;;;;14.36;50.22;100966.00;4944338;28;20094;-35
2024/01/16 07:41:05;;;;;;;16.65;9.52;;;;;;;14.31;50.25;100969.03;4941546;29;20083;-34
2024/01/16 07:43:32;;;;;;;16.52;8.60;;;;;;;14.27;50.14;100972.94;4942607;29;20052;-36
2024/01/16 07:45:59;;;;;;;13.90;8.63;;;;;;;14.21;49.85;100970.75;4945839;29;20056;-35
2024/01/16 07:48:25;;;;;;;13.68;8.50;;;;;;;14.17;50.07;100969.31;4943758;29;20131;-36
2024/01/16 07:50:52;;;;;;;15.35;8.27;;;;;;;14.14;50.69;100982.03;4942973;29;20062;-35
2024/01/16 07:53:19;;;;;;;13.77;8.45;;;;;;;14.10;49.92;100976.09;4940963;29;20163;-35
2024/01/16 07:55:46;;;;;;;13.05;8.43;;;;;;;14.05;50.00;100971.16;4947838;29;20137;-35
2024/01/16 07:58:13;;;;;;;12.80;8.05;;;;;;;14.02;49.92;100981.22;4948136;29;20500;-35
2024/01/16 08:00:40;;;;;;;13.27;9.05;;;;;;;13.98;50.44;100977.94;4947367;29;20329;-36
2024/01/16 08:03:11;;;;;;;13.20;7.78;;;;;;;13.95;50.08;100977.34;4947195;28;20050;-35
2024/01/16 08:05:38;;;;;;;11.50;7.25;;;;;;;13.90;50.09;100975.06;4944730;29;20364;-35
2024/01/16 08:08:08;;;;;;;13.40;7.80;;;;;;;13.87;50.13;100977.09;4942565;29;20055;-35
2024/01/16 08:10:34;;;;;;;13.35;7.32;;;;;;;13.84;50.51;100967.56;4943326;29;20063;-35
2024/01/16 08:13:01;;;;;;;11.85;7.10;;;;;;;13.82;50.56;100972.16;4940754;28;20055;-35
2024/01/16 08:15:27;;;;;;;10.35;7.03;;;;;;;13.81;50.47;100970.47;4946082;29;20142;-36
2024/01/16 08:17:54;;;;;;;13.23;7.30;;;;;;;13.79;50.54;100977.75;4943766;29;20120;-36
2024/01/16 08:20:21;;;;;;;12.15;7.55;;;;;;;13.76;50.62;100973.50;4945699;29;20087;-35
2024/01/16 08:22:50;;;;;;;12.93;7.07;;;;;;;13.76;50.83;100975.31;4947335;28;20053;-37
2024/01/16 08:25:16;;;;;;;11.38;7.07;;;;;;;13.76;50.39;100972.66;4943771;28;20444;-35
2024/01/16 08:27:43;;;;;;;10.05;6.93;;;;;;;13.74;50.41;100977.25;4945812;28;20477;-37
2024/01/16 08:30:12;;;;;;;11.88;6.78;;;;;;;13.74;50.78;100967.44;4945385;28;20051;-35
2024/01/16 08:32:39;;;;;;;11.43;7.22;;;;;;;13.75;50.54;100969.16;4943991;28;20047;-36
2024/01/16 08:35:06;;;;;;;10.85;6.00;;;;;;;13.76;50.38;100978.00;4944129;28;20058;-36
2024/01/16 08:37:34;;;;;;;10.57;6.72;;;;;;;13.75;50.62;100969.16;4943233;28;20135;-37
2024/01/16 08:40:01;;;;;;;11.43;6.53;;;;;;;13.78;50.35;100973.38;4946005;28;20139;-36
2024/01/16 08:42:27;;;;;;;11.18;6.10;;;;;;;13.77;50.42;100969.88;4939453;29;20403;-35
2024/01/16 08:44:54;;;;;;;10.40;6.40;;;;;;;13.79;50.50;100969.75;4943299;28;20061;-35
2024/01/16 08:47:21;;;;;;;9.88;6.13;;;;;;;13.80;50.03;100977.63;4942758;28;20059;-34
2024/01/16 08:49:48;;;;;;;12.20;6.40;;;;;;;13.81;50.16;100976.66;4942411;29;20047;-36
2024/01/16 08:52:15;;;;;;;10.80;6.28;;;;;;;13.83;50.25;100977.38;4940786;29;20082;-34
2024/01/16 08:54:42;;;;;;;9.60;6.03;;;;;;;13.85;49.98;100968.41;4941896;29;20059;-35
2024/01/16 08:57:10;;;;;;;10.20;7.35;;;;;;;13.88;50.52;100968.16;4942033;29;20063;-34
2024/01/16 08:59:40;;;;;;;9.60;5.68;;;;;;;13.88;50.40;100968.16;4941285;28;20102;-35
2024/01/16 09:02:07;;;;;;;11.77;6.10;;;;;;;13.90;50.08;100966.22;4939989;28;20475;-36
2024/01/16 09:04:34;;;;;;;9.13;5.55;;;;;;;13.92;50.21;100964.28;4945237;28;20153;-36
2024/01/16 09:07:04;;;;;;;8.73;5.68;;;;;;;13.93;50.08;100973.97;4939582;28;20058;-35
2024/01/16 09:09:31;;;;;;;9.57;5.68;;;;;;;13.92;49.73;100975.78;4946262;28;20134;-34
2024/01/16 09:11:58;;;;;;;9.00;5.72;;;;;;;13.94;49.54;100970.31;4940131;29;20110;-34
2024/01/16 09:14:24;;;;;;;8.35;5.40;;;;;;;13.95;49.49;100972.00;4941312;28;20048;-34
2024/01/16 09:16:53;;;;;;;12.15;5.60;;;;;;;13.96;49.74;100971.06;4938232;29;20341;-34
2024/01/16 09:19:19;;;;;;;8.85;5.53;;;;;;;13.97;49.66;100965.59;4938587;29;20051;-34
2024/01/16 09:21:46;;;;;;;8.88;5.03;;;;;;;13.97;49.93;100968.25;4941137;28;20130;-34
2024/01/16 09:24:13;;;;;;;10.25;5.20;;;;;;;13.98;49.78;100971.78;4943951;29;20046;-34
2024/01/16 09:26:39;;;;;;;7.53;5.00;;;;;;;13.97;50.10;100968.25;4938092;29;20051;-35
2024/01/16 09:29:08;;;;;;;8.77;5.43;;;;;;;13.98;49.87;100974.44;4939225;29;20098;-35
2024/01/16 09:31:35;;;;;;;9.02;5.20;;;;;;;13.99;50.22;100979.66;4941057;28;20056;-34
2024/01/16 09:34:03;;;;;;;9.30;5.40;;;;;;;14.00;50.18;100973.34;4943844;28;20055;-35
2024/01/16 09:36:35;;;;;;;7.03;5.10;;;;;;;14.02;50.17;100978.53;4941905;28;20059;-34
2024/01/16 09:39:08;;;;;;;11.52;5.20;;;;;;;14.05;49.80;100972.97;4938274;28;20728;-35
2024/01/16 09:41:35;;;;;;;8.40;5.20;;;;;;;14.08;50.43;100972.72;4946525;29;20078;-35
2024/01/16 09:44:02;;;;;;;7.25;4.68;;;;;;;14.12;49.57;100974.19;4938398;29;20048;-36
2024/01/16 09:46:31;;;;;;;7.65;4.80;;;;;;;14.14;50.29;100966.03;4944304;29;20596;-35
2024/01/16 09:48:59;;;;;;;7.60;4.45;;;;;;;14.17;49.46;100969.31;4943762;29;20109;-36
2024/01/16 09:51:26;;;;;;;9.68;4.85;;;;;;;14.20;49.52;100968.22;4942736;28;20054;-35
2024/01/16 09:53:53;;;;;;;7.78;4.70;;;;;;;14.22;50.06;100964.44;4942452;29;20428;-36
2024/01/16 09:56:23;;;;;;;8.07;4.40;;;;;;;14.26;50.14;100955.22;4947060;28;20051;-35
2024/01/16 09:58:56;;;;;;;7.40;4.57;;;;;;;14.30;49.91;100963.81;4942864;28;20455;-35
2024/01/16 10:01:27;;;;;;;7.00;4.18;;;;;;;14.33;49.73;100963.56;4942034;28;20383;-35
2024/01/16 10:03:53;;;;;;;7.43;5.00;;;;;;;14.36;50.17;100950.00;4946390;28;20403;-38
2024/01/16 10:06:20;;;;;;;7.53;4.57;;;;;;;14.38;49.46;100947.19;4943969;28;20131;-35
2024/01/16 10:08:47;;;;;;;7.07;4.47;;;;;;;14.40;49.62;100946.09;4941273;28;20355;-35
2024/01/16 10:11:14;;;;;;;7.00;4.22;;;;;;;14.44;49.90;100946.69;4944537;29;20119;-36
2024/01/16 10:13:41;;;;;;;5.93;4.07;;;;;;;14.46;50.48;100940.22;4946013;29;20052;-36
2024/01/16 10:16:08;;;;;;;6.90;4.03;;;;;;;14.52;50.53;100947.78;4944440;29;20066;-35
2024/01/16 10:18:35;;;;;;;7.15;4.07;;;;;;;14.58;49.42;100941.06;4945642;29;20043;-35
2024/01/16 10:21:02;;;;;;;7.68;4.22;;;;;;;14.65;49.86;100936.06;4946185;28;20431;-34
2024/01/16 10:23:30;;;;;;;7.32;4.05;;;;;;;14.73;49.17;100931.78;4947511;28;20052;-35
2024/01/16 10:26:10;;;;;;;8.27;3.30;;;;;;;14.80;49.00;100935.63;4948423;28;20086;-35
2024/01/16 10:28:41;;;;;;;4.75;3.20;;;;;;;14.88;48.42;100937.63;4944196;28;20127;-35
2024/01/16 10:31:10;;;;;;;5.25;3.67;;;;;;;14.96;48.67;100939.66;4945943;29;20062;-35
2024/01/16 10:33:40;;;;;;;5.93;3.38;;;;;;;15.05;48.44;100938.88;4947655;28;20051;-34
2024/01/16 10:36:08;;;;;;;4.55;2.97;;;;;;;15.12;48.15;100932.03;4943696;29;20051;-35
2024/01/16 10:38:38;;;;;;;5.85;3.13;;;;;;;15.20;48.70;100945.56;4947956;28;20455;-36
2024/01/16 10:41:17;;;;;;;4.47;3.15;;;;;;;15.26;48.71;100945.00;4946615;29;20056;-34
2024/01/16 10:43:44;;;;;;;6.28;3.40;;;;;;;15.33;48.96;100942.66;4944884;28;20446;-35
2024/01/16 10:46:16;;;;;;;5.30;3.20;;;;;;;15.39;48.54;100931.44;4941165;28;20056;-35
2024/01/16 10:48:44;;;;;;;5.68;3.20;;;;;;;15.44;48.74;100931.91;4944478;29;20047;-36
2024/01/16 10:51:14;;;;;;;5.20;3.08;;;;;;;15.51;47.73;100924.16;4941605;28;20054;-37
2024/01/16 10:53:43;;;;;;;5.50;3.20;;;;;;;15.56;48.57;100924.63;4944743;28;20043;-36
2024/01/16 10:56:12;;;;;;;6.13;3.45;;;;;;;15.60;48.02;100928.72;4943832;28;20056;-36
2024/01/16 10:58:42;;;;;;;7.57;3.00;;;;;;;15.63;48.39;100923.09;4944616;29;20090;-36
2024/01/16 11:01:14;;;;;;;6.38;3.10;;;;;;;15.69;48.46;100924.41;4946298;28;20164;-38
2024/01/16 11:03:49;;;;;;;4.82;2.78;;;;;;;15.70;47.54;100921.59;4946106;28;20058;-37
2024/01/16 11:06:17;;;;;;;4.93;3.00;;;;;;;15.74;48.35;100912.31;4946051;29;20623;-36
2024/01/16 11:08:48;;;;;;;5.35;3.45;;;;;;;15.77;47.24;100909.38;4943037;28;20047;-37
2024/01/16 11:11:16;;;;;;;4.32;2.53;;;;;;;15.81;48.08;100909.94;4948515;29;20058;-37
2024/01/16 11:13:44;;;;;;;6.13;3.30;;;;;;;15.84;47.98;100899.00;4946084;28;20671;-37
2024/01/16 11:16:11;;;;;;;5.20;2.78;;;;;;;15.86;47.47;100901.53;4948161;29;20082;-37
2024/01/16 11:18:38;;;;;;;7.80;3.42;;;;;;;15.88;47.19;100891.53;4945753;28;20051;-39
2024/01/16 11:21:16;;;;;;;5.68;2.50;;;;;;;15.90;47.66;100881.56;4946261;28;20304;-35